URKA Airport Information

Runway Information
Runway 04 Length 8202 ft width 138 ft
Elevation 137 ft Threshold 0 ft Heading 42
Runway 22 Length 8202 ft Width 138 ft
Elevation 174 ft Threshold 0 ft Heading 222
Airport Frequencies
Type APP Name ANAPA APP Frequency 118.7 MHZ
Type TWR Name ANAPA KRUG Frequency 119.8 MHZ
Airport Navaids
Type NDB Name Anapa Frequency 443 KHZ
Type NDB Name Anapa Frequency 443 KHZ
Airport Weather Information & NOTAM
ADDS - METARS form results

(0621 UTC 31 March 2020)
Data provider http://aviationweather.gov/metar/data/
 
METAR text: URKA 310600Z 18005MPS 160V230 9999 FEW015 12/09 Q1013 R22/010070 NOSIG RMK QFE755/1007
Conditions at: URKA (ANAPA/VITIAZEVO , RU) observed 0600 UTC 31 March 2020
Temperature: 12.0°C (54°F)
Dewpoint: 9.0°C (48°F) [RH = 82%]
Pressure (altimeter): 29.91 inches Hg (1013.0 mb)
Winds: from the S (180 degrees) at 12 MPH (10 knots; 5.1 m/s)
Visibility: 6 or more miles (10+ km)
Ceiling: at least 12,000 feet AGL
Clouds: few clouds at 1500 feet AGL
Weather: no significant weather observed at this time

METAR text: URKA 310530Z 22003MPS 180V240 9999 FEW/// 10/09 Q1013 R22/010070 NOSIG RMK QFE755/1006
Conditions at: URKA (ANAPA/VITIAZEVO , RU) observed 0530 UTC 31 March 2020
Temperature: 10.0°C (50°F)
Dewpoint: 9.0°C (48°F) [RH = 93%]
Pressure (altimeter): 29.91 inches Hg (1013.0 mb)
Winds: from the SW (220 degrees) at 7 MPH (6 knots; 3.1 m/s)
Visibility: 6 or more miles (10+ km)
Ceiling: unknown
Clouds: missing
Weather: no significant weather observed at this time

Forecast for: URKA (ANAPA/VITIAZEVO , RU)
Text: TAF URKA 310458Z 3106/0106 20006G12MPS 9999 SCT030CB
Forecast period: 0600 to 1200 UTC 31 March 2020
Forecast type: FROM: standard forecast or significant change
Winds: from the SSW (200 degrees) at 14 MPH (12 knots; 6.2 m/s)
gusting to 26 MPH (23 knots; 11.8 m/s)
Visibility: 6 or more miles 10+ km)
Ceiling: at least 12,000 feet AGL
Clouds: scattered clouds at 3000 feet AGL
Weather: no significant weather forecast for this period
Text: TEMPO 3106/3112 SCT011
Forecast period: 0600 to 1200 UTC 31 March 2020
Forecast type: TEMPORARY: The following changes expected for less than half the time period
Visibility: missing
Ceiling: at least 12,000 feet AGL
Clouds: scattered clouds at 1100 feet AGL
Weather: no significant weather forecast for this period
Text: BECMG 3112/3114 36006G11MPS
Forecast period: 1200 UTC 31 March 2020 to 0600 UTC 01 April 2020
Forecast type: BECOMING: Conditions expected to become as follows by 1400 UTC 31 March 2020
Winds: from the N (360 degrees) at 14 MPH (12 knots; 6.2 m/s)
gusting to 24 MPH (21 knots; 10.8 m/s)
Visibility: 6 or more miles 10+ km)
Ceiling: at least 12,000 feet AGL
Clouds: scattered clouds at 3000 feet AGL
Weather: no significant weather forecast for this period